Time;durP1;ratioP1;P1;durP2;ratioP2;P2;SDS_P1;SDS_P2;PMS_P1;PMS_P2;Temp;Humidity;BMP_temperature;BMP_pressure;BME280_temperature;BME280_humidity;BME280_pressure;Samples;Min_cycle;Max_cycle;Signal;HPM_P1;HPM_P2
2022/04/18 00:01:50;;;;;;;4.93;4.47;;;3.30;99.90;;;;;;5019567;28;20558;-50
2022/04/18 00:04:18;;;;;;;8.40;5.77;;;3.30;99.90;;;;;;5014810;28;21017;-49
2022/04/18 00:06:45;;;;;;;9.30;5.97;;;3.30;99.90;;;;;;5008445;28;20545;-49
2022/04/18 00:09:12;;;;;;;5.80;5.20;;;3.30;99.90;;;;;;5011592;28;21109;-50
2022/04/18 00:11:39;;;;;;;6.17;5.57;;;3.20;99.90;;;;;;5004437;28;20547;-49
2022/04/18 00:14:06;;;;;;;6.17;5.63;;;3.10;99.90;;;;;;5009399;28;20565;-49
2022/04/18 00:16:33;;;;;;;6.63;5.80;;;3.10;99.90;;;;;;5019241;28;20553;-50
2022/04/18 00:19:01;;;;;;;5.63;5.13;;;3.10;99.90;;;;;;5017632;28;20494;-49
2022/04/18 00:21:28;;;;;;;5.50;5.10;;;3.10;99.90;;;;;;5016146;28;20515;-49
2022/04/18 00:23:54;;;;;;;5.57;5.07;;;3.00;99.90;;;;;;5021166;28;20493;-50
2022/04/18 00:26:21;;;;;;;6.67;5.93;;;3.00;99.90;;;;;;5020280;28;20536;-50
2022/04/18 00:28:47;;;;;;;7.70;6.30;;;2.90;99.90;;;;;;5025458;28;20495;-49
2022/04/18 00:31:14;;;;;;;6.40;5.80;;;2.80;99.90;;;;;;5022443;28;20895;-49
2022/04/18 00:33:41;;;;;;;6.50;5.90;;;2.80;99.90;;;;;;5020151;28;20506;-49
2022/04/18 00:36:08;;;;;;;7.73;5.80;;;2.70;99.90;;;;;;5018970;28;21008;-49
2022/04/18 00:38:35;;;;;;;6.80;6.10;;;2.70;99.90;;;;;;5021283;28;20575;-54
2022/04/18 00:41:02;;;;;;;7.57;6.30;;;2.70;99.90;;;;;;5022043;28;20515;-49
2022/04/18 00:43:43;;;;;;;5.53;5.13;;;2.60;99.90;;;;;;5023195;28;20481;-49
2022/04/18 00:46:10;;;;;;;7.40;6.40;;;2.60;99.90;;;;;;5022337;28;20458;-49
2022/04/18 00:48:37;;;;;;;7.80;6.70;;;2.60;99.90;;;;;;5020324;28;20470;-50
2022/04/18 00:51:05;;;;;;;8.57;6.03;;;2.50;99.90;;;;;;5015738;28;20506;-49
2022/04/18 00:53:35;;;;;;;6.40;5.77;;;2.40;99.90;;;;;;5024410;28;21236;-49
2022/04/18 00:56:01;;;;;;;6.33;5.70;;;2.40;99.90;;;;;;5020042;28;20469;-49
2022/04/18 00:58:29;;;;;;;6.03;5.20;;;2.40;99.90;;;;;;5020026;28;20474;-50
2022/04/18 01:00:56;;;;;;;9.37;6.53;;;2.40;99.90;;;;;;5018551;28;20622;-50
2022/04/18 01:03:22;;;;;;;6.30;5.57;;;2.20;99.90;;;;;;5015448;28;20882;-50
2022/04/18 01:05:49;;;;;;;7.53;6.23;;;2.20;99.90;;;;;;5020513;28;21555;-50
2022/04/18 01:08:16;;;;;;;7.70;6.40;;;2.10;99.90;;;;;;5021152;28;20564;-49
2022/04/18 01:10:45;;;;;;;7.23;6.20;;;2.10;99.90;;;;;;5020051;28;20498;-49
2022/04/18 01:13:11;;;;;;;7.43;6.03;;;2.00;99.90;;;;;;5024346;28;20479;-50
2022/04/18 01:15:38;;;;;;;7.67;6.33;;;2.00;99.90;;;;;;5019786;28;20510;-50
2022/04/18 01:18:05;;;;;;;7.23;6.03;;;2.10;99.90;;;;;;5018109;28;20495;-50
2022/04/18 01:20:35;;;;;;;8.40;7.07;;;2.00;99.90;;;;;;5018940;28;21842;-50
2022/04/18 01:23:05;;;;;;;6.93;5.87;;;2.00;99.90;;;;;;5021307;28;20570;-49
2022/04/18 01:31:00;;;;;;;6.37;5.80;;;1.80;99.90;;;;;;5018530;28;20497;-49
2022/04/18 01:33:27;;;;;;;5.73;5.33;;;1.80;99.90;;;;;;5018561;28;20575;-50
2022/04/18 01:35:54;;;;;;;9.23;6.50;;;1.80;99.90;;;;;;5016514;28;20483;-48
2022/04/18 01:38:22;;;;;;;7.00;6.20;;;1.70;99.90;;;;;;5018405;28;20487;-49
2022/04/18 01:40:48;;;;;;;6.67;5.83;;;1.60;99.90;;;;;;5018047;28;22252;-50
2022/04/18 01:43:15;;;;;;;7.07;6.47;;;1.50;99.90;;;;;;5019829;28;20575;-49
2022/04/18 01:45:41;;;;;;;7.67;6.90;;;1.50;99.90;;;;;;5017129;28;20562;-49
2022/04/18 01:48:08;;;;;;;9.07;6.97;;;1.50;99.90;;;;;;5024040;28;20995;-49
2022/04/18 01:50:35;;;;;;;7.00;6.30;;;1.50;99.90;;;;;;5020308;28;20550;-49
2022/04/18 01:53:03;;;;;;;8.20;7.13;;;1.40;99.90;;;;;;5022223;28;20493;-49
2022/04/18 01:55:31;;;;;;;11.57;6.57;;;1.40;99.90;;;;;;5023089;28;21429;-49
2022/04/18 01:57:57;;;;;;;6.90;6.07;;;1.30;99.90;;;;;;5020776;28;20848;-49
2022/04/18 02:00:24;;;;;;;7.50;6.80;;;1.30;99.90;;;;;;5013716;28;22150;-50
2022/04/18 02:02:52;;;;;;;6.40;5.80;;;1.30;99.90;;;;;;5019409;28;61986;-53
2022/04/18 02:05:18;;;;;;;8.77;6.60;;;1.20;99.90;;;;;;5027361;28;20458;-49
2022/04/18 02:07:45;;;;;;;9.97;6.77;;;1.30;99.90;;;;;;5020193;28;20462;-49
2022/04/18 02:10:12;;;;;;;6.43;5.93;;;1.20;99.90;;;;;;5017425;28;20465;-49
2022/04/18 02:12:40;;;;;;;6.87;6.13;;;1.10;99.90;;;;;;5019720;28;20542;-49
2022/04/18 02:15:07;;;;;;;7.30;6.60;;;1.10;99.90;;;;;;5019970;28;21051;-49
2022/04/18 02:17:34;;;;;;;6.00;5.40;;;1.10;99.90;;;;;;5018640;28;20541;-50
2022/04/18 02:20:01;;;;;;;10.30;6.40;;;1.10;99.90;;;;;;5015658;28;20563;-50
2022/04/18 02:22:27;;;;;;;6.77;6.07;;;1.20;99.90;;;;;;5020177;28;20497;-50
2022/04/18 02:24:57;;;;;;;6.07;5.47;;;1.10;99.90;;;;;;5014045;28;21007;-49
2022/04/18 02:27:23;;;;;;;6.33;5.73;;;1.10;99.90;;;;;;5018043;28;20549;-49
2022/04/18 02:29:51;;;;;;;7.33;5.40;;;1.10;99.90;;;;;;5017389;28;20567;-49
2022/04/18 02:35:02;;;;;;;6.77;6.07;;;1.00;92.90;;;;;;5017544;28;20477;-49
2022/04/18 02:37:29;;;;;;;8.70;6.30;;;0.90;95.00;;;;;;5016753;28;20558;-48
2022/04/18 02:39:59;;;;;;;5.67;5.27;;;0.90;94.00;;;;;;5017450;28;20921;-50
2022/04/18 02:42:25;;;;;;;6.33;5.83;;;1.00;95.60;;;;;;5015026;28;20839;-50
2022/04/18 02:44:53;;;;;;;11.20;6.23;;;0.90;99.90;;;;;;5021507;28;20559;-50
2022/04/18 02:47:20;;;;;;;6.87;5.77;;;0.90;99.90;;;;;;5018607;28;20913;-49
2022/04/18 02:49:46;;;;;;;6.03;5.53;;;0.90;99.90;;;;;;5021867;28;20517;-49
2022/04/18 02:52:13;;;;;;;6.90;6.30;;;0.80;99.90;;;;;;5023075;28;20546;-49
2022/04/18 02:54:40;;;;;;;6.33;5.37;;;0.80;99.90;;;;;;5027744;28;20518;-50
2022/04/18 02:57:06;;;;;;;5.80;5.30;;;0.80;98.50;;;;;;5030473;28;20493;-49
2022/04/18 02:59:33;;;;;;;7.27;6.53;;;0.80;97.80;;;;;;5032271;28;20487;-50
2022/04/18 03:02:01;;;;;;;8.20;6.17;;;0.80;97.80;;;;;;5022898;28;20927;-49
2022/04/18 03:04:28;;;;;;;7.13;6.43;;;0.80;92.00;;;;;;5026939;28;20486;-49
2022/04/18 03:06:54;;;;;;;7.97;6.00;;;0.80;90.80;;;;;;5022394;28;20463;-49
2022/04/18 03:09:21;;;;;;;5.90;5.40;;;0.80;99.90;;;;;;5022444;28;20953;-49
2022/04/18 03:11:48;;;;;;;6.87;6.07;;;0.90;97.40;;;;;;5018504;28;20561;-50
2022/04/18 03:14:14;;;;;;;6.90;6.20;;;1.00;99.90;;;;;;5020696;28;20479;-51
2022/04/18 03:16:41;;;;;;;6.07;5.47;;;0.90;99.90;;;;;;5028072;28;20518;-49
2022/04/18 03:19:09;;;;;;;6.57;5.97;;;0.90;99.90;;;;;;5023865;28;20949;-49
2022/04/18 03:21:36;;;;;;;6.77;6.10;;;0.90;99.90;;;;;;5021778;28;20577;-49
2022/04/18 03:24:02;;;;;;;8.67;6.67;;;0.80;99.90;;;;;;5019853;28;20578;-49
2022/04/18 03:26:29;;;;;;;8.03;6.53;;;0.80;99.90;;;;;;5028166;28;20825;-49
2022/04/18 03:28:56;;;;;;;7.63;6.20;;;0.80;99.90;;;;;;5024807;28;20872;-50
2022/04/18 03:31:22;;;;;;;6.77;6.20;;;0.80;99.90;;;;;;5030990;28;20979;-49
2022/04/18 03:33:49;;;;;;;12.53;6.23;;;0.70;99.90;;;;;;5026462;28;20522;-50
2022/04/18 03:41:45;;;;;;;7.30;6.60;;;0.70;99.90;;;;;;5024843;28;20486;-49
2022/04/18 03:44:11;;;;;;;7.57;6.60;;;0.70;99.90;;;;;;5018903;28;20513;-50
2022/04/18 03:46:38;;;;;;;7.17;6.47;;;0.60;99.90;;;;;;5020271;28;21464;-49
2022/04/18 03:49:04;;;;;;;10.13;6.53;;;0.60;99.20;;;;;;5027395;28;20550;-50
2022/04/18 03:51:32;;;;;;;11.23;6.90;;;0.50;91.70;;;;;;5027941;28;20490;-50
2022/04/18 03:53:59;;;;;;;7.60;5.87;;;0.60;82.80;;;;;;5026890;28;20509;-49
2022/04/18 03:56:25;;;;;;;7.37;6.13;;;0.50;83.60;;;;;;5025316;28;20546;-49
2022/04/18 03:58:52;;;;;;;6.50;5.90;;;0.50;80.70;;;;;;5026529;28;21745;-49
2022/04/18 04:01:19;;;;;;;7.57;6.87;;;0.50;80.70;;;;;;5024550;28;20665;-49
2022/04/18 04:03:45;;;;;;;7.40;6.50;;;0.50;91.10;;;;;;5033212;28;20522;-49
2022/04/18 04:06:12;;;;;;;6.53;5.93;;;0.50;94.10;;;;;;5021280;28;20498;-49
2022/04/18 04:08:39;;;;;;;6.27;5.67;;;0.50;94.10;;;;;;5019092;28;20554;-49
2022/04/18 04:11:06;;;;;;;8.27;7.13;;;0.50;81.80;;;;;;5029520;28;20486;-49
2022/04/18 04:13:33;;;;;;;10.47;6.40;;;0.60;91.20;;;;;;5025992;28;20534;-49
2022/04/18 04:15:59;;;;;;;9.03;7.20;;;0.50;99.90;;;;;;5029821;28;20499;-48
2022/04/18 04:18:26;;;;;;;13.20;6.50;;;0.60;99.90;;;;;;5027894;28;20498;-50
2022/04/18 04:20:52;;;;;;;9.98;6.10;;;0.50;94.50;;;;;;5029601;28;20497;-50
2022/04/18 04:23:19;;;;;;;6.80;5.90;;;0.60;81.50;;;;;;5024735;28;20232;-49
2022/04/18 04:25:47;;;;;;;7.40;6.27;;;0.50;84.90;;;;;;5027077;28;20471;-50
2022/04/18 04:28:13;;;;;;;6.27;5.57;;;0.50;82.30;;;;;;5028655;28;20490;-50
2022/04/18 04:30:41;;;;;;;8.10;6.93;;;0.60;95.00;;;;;;5024516;28;20918;-50
2022/04/18 04:33:07;;;;;;;7.07;6.37;;;0.70;97.20;;;;;;5021019;28;20490;-50
2022/04/18 04:35:34;;;;;;;7.60;6.13;;;0.70;99.90;;;;;;5029443;28;20550;-49
2022/04/18 04:38:00;;;;;;;7.23;6.57;;;0.70;99.90;;;;;;5017001;28;20558;-49
2022/04/18 04:40:27;;;;;;;7.47;6.50;;;0.80;99.90;;;;;;5028106;28;20490;-49
2022/04/18 04:42:55;;;;;;;7.00;6.30;;;0.80;99.90;;;;;;5026248;28;20483;-49
2022/04/18 04:45:22;;;;;;;7.17;6.50;;;0.80;99.90;;;;;;5023194;28;20513;-50
2022/04/18 04:47:48;;;;;;;7.47;5.83;;;0.90;99.90;;;;;;5026864;28;20459;-51
2022/04/18 04:50:15;;;;;;;8.30;7.37;;;0.90;99.90;;;;;;5029211;28;20549;-49
2022/04/18 04:52:41;;;;;;;6.53;6.00;;;1.00;99.90;;;;;;5030782;28;20499;-50
2022/04/18 04:55:10;;;;;;;8.33;7.50;;;1.00;99.90;;;;;;5027851;28;20506;-50
2022/04/18 04:57:37;;;;;;;8.50;6.60;;;1.10;99.90;;;;;;5020959;28;20541;-50
2022/04/18 05:00:06;;;;;;;7.33;6.53;;;1.20;99.90;;;;;;5022091;28;20545;-49
2022/04/18 05:02:33;;;;;;;10.50;7.37;;;1.30;99.90;;;;;;5019032;28;20578;-49
2022/04/18 05:04:59;;;;;;;8.27;7.13;;;1.30;99.90;;;;;;5030213;28;20941;-50
2022/04/18 05:07:26;;;;;;;6.87;6.17;;;1.40;99.90;;;;;;5019239;28;20558;-50
2022/04/18 05:09:52;;;;;;;9.30;7.30;;;1.40;99.90;;;;;;5019303;28;20525;-55
2022/04/18 05:12:19;;;;;;;9.00;6.37;;;1.50;99.90;;;;;;5018591;28;20547;-50
2022/04/18 05:14:46;;;;;;;7.53;6.13;;;1.60;99.90;;;;;;5017234;28;20601;-49
2022/04/18 05:17:14;;;;;;;8.43;7.00;;;1.70;99.90;;;;;;5030404;28;20490;-49
2022/04/18 05:19:40;;;;;;;8.17;6.83;;;1.80;99.90;;;;;;5022264;28;20546;-50
2022/04/18 05:22:07;;;;;;;7.73;6.93;;;2.00;99.90;;;;;;5019885;28;20609;-50
2022/04/18 05:24:33;;;;;;;7.80;7.00;;;2.10;99.90;;;;;;5024540;28;20518;-49
2022/04/18 05:27:00;;;;;;;7.63;6.93;;;2.30;99.90;;;;;;5023128;28;20981;-50
2022/04/18 05:29:26;;;;;;;8.20;7.30;;;2.40;99.90;;;;;;5016583;28;20555;-50
2022/04/18 05:31:53;;;;;;;10.83;7.93;;;2.50;99.90;;;;;;5027446;28;20463;-49
2022/04/18 05:34:21;;;;;;;10.63;7.30;;;2.70;99.90;;;;;;5023963;28;20934;-50
2022/04/18 05:36:47;;;;;;;10.30;7.77;;;2.90;99.90;;;;;;5015878;28;20546;-49
2022/04/18 05:39:14;;;;;;;10.80;7.93;;;3.00;99.90;;;;;;5012739;28;20478;-49
2022/04/18 05:41:40;;;;;;;10.73;7.97;;;3.20;99.90;;;;;;5018903;28;21460;-49
2022/04/18 05:44:07;;;;;;;14.20;8.47;;;3.40;99.90;;;;;;5015923;28;21839;-49
2022/04/18 05:46:33;;;;;;;11.33;7.70;;;3.60;99.90;;;;;;5028221;28;20495;-50
2022/04/18 05:49:00;;;;;;;11.10;8.40;;;3.80;99.90;;;;;;5024882;28;20482;-50
2022/04/18 05:51:28;;;;;;;15.43;10.00;;;4.00;99.90;;;;;;5019949;28;20484;-50
2022/04/18 05:53:54;;;;;;;11.47;8.20;;;4.20;99.90;;;;;;5023937;28;20509;-50
2022/04/18 05:56:21;;;;;;;12.80;8.57;;;4.40;99.90;;;;;;5024906;28;20542;-49
2022/04/18 05:58:47;;;;;;;12.53;9.50;;;4.60;99.90;;;;;;5021697;28;20557;-50
2022/04/18 06:01:14;;;;;;;16.83;9.13;;;4.80;99.90;;;;;;5022496;28;20459;-49
2022/04/18 06:03:40;;;;;;;12.77;8.70;;;4.90;99.90;;;;;;5018948;28;21075;-50
2022/04/18 06:06:07;;;;;;;19.83;11.80;;;5.10;99.90;;;;;;5021104;28;20949;-49
2022/04/18 06:08:35;;;;;;;14.33;9.40;;;5.30;99.90;;;;;;5024724;28;20999;-49
2022/04/18 06:11:01;;;;;;;17.27;9.97;;;5.60;99.90;;;;;;5026322;28;20644;-49
2022/04/18 06:13:28;;;;;;;15.53;10.87;;;6.00;99.90;;;;;;5018797;28;20567;-50
2022/04/18 06:15:54;;;;;;;16.00;10.57;;;6.60;34.20;;;;;;5017626;28;21471;-50
2022/04/18 06:18:21;;;;;;;17.90;11.43;;;6.90;54.50;;;;;;5017333;28;20503;-49
2022/04/18 06:20:47;;;;;;;21.93;11.80;;;7.00;60.30;;;;;;5017789;28;20487;-50
2022/04/18 06:23:15;;;;;;;19.70;12.73;;;7.20;66.80;;;;;;5018597;28;20581;-50
2022/04/18 06:25:43;;;;;;;20.83;12.37;;;7.30;71.60;;;;;;5021213;28;20566;-49
2022/04/18 06:28:10;;;;;;;21.53;13.20;;;7.60;71.00;;;;;;5020284;28;20459;-50
2022/04/18 06:30:37;;;;;;;25.37;14.03;;;7.70;83.90;;;;;;5018386;28;20555;-50
2022/04/18 06:33:04;;;;;;;20.33;12.47;;;8.00;90.40;;;;;;5022185;28;20463;-49
2022/04/18 06:35:31;;;;;;;26.30;13.30;;;8.30;97.10;;;;;;5022849;28;20577;-51
2022/04/18 06:37:57;;;;;;;23.53;14.27;;;8.40;99.90;;;;;;5019880;28;20549;-50
2022/04/18 06:40:24;;;;;;;24.03;15.33;;;8.60;99.90;;;;;;5028488;28;20494;-49
2022/04/18 06:42:52;;;;;;;24.43;14.33;;;8.60;99.90;;;;;;5021288;28;20644;-49
2022/04/18 06:45:18;;;;;;;29.73;15.97;;;8.70;99.90;;;;;;5020293;28;20466;-49
2022/04/18 06:47:45;;;;;;;17.53;13.43;;;8.80;99.90;;;;;;5028256;28;20505;-50
2022/04/18 06:50:12;;;;;;;21.03;14.23;;;9.00;99.90;;;;;;5027853;28;20554;-49
2022/04/18 06:52:39;;;;;;;24.43;14.67;;;9.20;99.90;;;;;;5021430;28;20461;-49
2022/04/18 06:55:07;;;;;;;23.43;15.23;;;9.40;99.90;;;;;;5022208;28;20577;-49
2022/04/18 06:57:33;;;;;;;19.57;14.40;;;9.40;99.90;;;;;;5017813;28;20576;-50
2022/04/18 07:00:01;;;;;;;24.73;13.60;;;9.60;99.90;;;;;;5017082;28;20975;-49
2022/04/18 07:02:28;;;;;;;17.30;12.63;;;9.70;99.90;;;;;;5025240;28;20767;-51
2022/04/18 07:04:54;;;;;;;18.63;12.23;;;9.90;99.90;;;;;;5016248;28;20527;-49
2022/04/18 07:07:21;;;;;;;22.13;13.37;;;9.90;99.90;;;;;;5015130;28;20557;-49
2022/04/18 07:09:47;;;;;;;22.60;12.60;;;9.90;99.90;;;;;;5015565;28;20566;-49
2022/04/18 07:12:14;;;;;;;19.97;11.90;;;10.00;99.90;;;;;;5012027;28;20490;-50
2022/04/18 07:14:42;;;;;;;15.53;10.60;;;10.10;99.90;;;;;;5015335;28;20576;-50
2022/04/18 07:17:09;;;;;;;13.43;10.17;;;10.10;99.90;;;;;;5015055;28;20459;-50
2022/04/18 07:19:36;;;;;;;14.53;10.57;;;10.10;99.90;;;;;;5018849;28;20554;-49
2022/04/18 07:22:03;;;;;;;9.37;7.87;;;10.40;99.90;;;;;;5016555;28;20578;-49
2022/04/18 07:24:29;;;;;;;16.77;9.03;;;10.40;99.90;;;;;;5015522;28;20569;-50
2022/04/18 07:27:00;;;;;;;11.33;8.87;;;10.30;99.90;;;;;;5022023;28;20536;-50
2022/04/18 07:29:27;;;;;;;11.70;7.60;;;10.20;99.90;;;;;;5018073;28;20462;-49
2022/04/18 07:31:54;;;;;;;9.50;7.67;;;10.40;99.90;;;;;;5018707;28;20591;-50
2022/04/18 07:34:22;;;;;;;9.33;6.60;;;10.50;99.90;;;;;;5020693;28;20482;-50
2022/04/18 07:36:49;;;;;;;7.60;6.40;;;10.70;99.90;;;;;;5018518;28;20455;-50
2022/04/18 07:39:15;;;;;;;8.83;5.90;;;11.10;99.90;;;;;;5019788;28;20549;-50
2022/04/18 07:41:42;;;;;;;7.90;5.87;;;11.10;99.90;;;;;;5019134;28;21142;-50
2022/04/18 07:44:09;;;;;;;7.47;5.90;;;11.30;99.90;;;;;;5024614;28;20506;-48
2022/04/18 07:46:36;;;;;;;7.30;4.70;;;11.40;99.90;;;;;;5021096;28;20467;-49
2022/04/18 07:49:02;;;;;;;6.50;4.60;;;11.50;99.90;;;;;;5017252;28;22279;-49
2022/04/18 07:51:35;;;;;;;8.87;6.10;;;11.30;99.90;;;;;;5023862;28;20546;-49
2022/04/18 07:54:04;;;;;;;8.80;5.37;;;11.30;99.90;;;;;;5020102;28;21036;-49
2022/04/18 07:56:30;;;;;;;7.50;6.00;;;11.60;99.90;;;;;;5019031;28;21040;-50
2022/04/18 07:58:57;;;;;;;6.83;5.83;;;11.30;99.90;;;;;;5021180;28;20769;-49
2022/04/18 08:01:24;;;;;;;7.23;5.33;;;11.80;99.90;;;;;;5017690;28;20589;-49
2022/04/18 08:03:50;;;;;;;6.47;5.43;;;12.20;99.90;;;;;;5018115;28;20494;-49
2022/04/18 08:06:17;;;;;;;6.20;4.93;;;12.10;99.90;;;;;;5020243;28;20498;-48
2022/04/18 08:08:45;;;;;;;4.97;4.47;;;12.40;99.90;;;;;;5023473;28;20554;-48
2022/04/18 08:11:14;;;;;;;7.60;4.97;;;12.50;99.90;;;;;;5024892;28;20482;-49
2022/04/18 08:13:41;;;;;;;6.23;5.40;;;12.60;99.90;;;;;;5020940;28;21673;-49
2022/04/18 08:16:09;;;;;;;7.80;5.47;;;13.30;99.90;;;;;;5017733;28;20553;-48
2022/04/18 08:18:38;;;;;;;7.20;5.73;;;13.00;99.90;;;;;;5020022;28;20956;-50
2022/04/18 08:21:04;;;;;;;8.07;5.33;;;13.60;99.90;;;;;;5020730;28;20459;-50
2022/04/18 08:23:32;;;;;;;7.43;6.13;;;13.10;99.90;;;;;;5021696;28;20590;-51
2022/04/18 08:26:00;;;;;;;7.73;5.57;;;13.40;99.90;;;;;;5021703;28;20554;-50
2022/04/18 08:28:27;;;;;;;10.73;6.07;;;13.40;99.90;;;;;;5019396;28;20527;-50
2022/04/18 08:30:53;;;;;;;10.83;6.00;;;13.70;99.90;;;;;;5021405;28;20459;-50
2022/04/18 08:33:20;;;;;;;6.90;5.30;;;13.90;99.90;;;;;;5021640;28;20577;-51
2022/04/18 08:35:47;;;;;;;6.50;5.60;;;13.90;99.90;;;;;;5025339;28;21159;-50
2022/04/18 08:38:14;;;;;;;5.03;4.53;;;14.20;99.90;;;;;;5018328;28;20874;-50
2022/04/18 08:40:42;;;;;;;6.70;5.77;;;14.70;99.90;;;;;;5017018;28;20911;-51
2022/04/18 08:43:11;;;;;;;6.33;4.90;;;14.70;99.90;;;;;;5016506;28;20486;-51
2022/04/18 08:45:39;;;;;;;5.77;4.10;;;15.10;99.90;;;;;;5020360;28;20590;-51
2022/04/18 08:53:36;;;;;;;7.23;3.60;;;14.90;99.90;;;;;;5021922;28;21003;-50
2022/04/18 08:56:03;;;;;;;5.00;2.90;;;15.20;99.90;;;;;;5028705;28;20906;-51
2022/04/18 08:58:31;;;;;;;6.50;3.30;;;14.90;99.90;;;;;;5029866;28;20546;-52
2022/04/18 09:01:00;;;;;;;3.53;3.13;;;15.80;99.90;;;;;;5025857;28;20542;-51
2022/04/18 09:03:26;;;;;;;3.10;2.63;;;16.70;99.90;;;;;;5022942;28;20517;-51
2022/04/18 09:06:04;;;;;;;4.70;4.00;;;16.70;99.90;;;;;;5029476;28;20490;-51
2022/04/18 09:08:34;;;;;;;3.43;3.13;;;16.70;99.90;;;;;;5021435;28;20551;-50
2022/04/18 09:11:00;;;;;;;4.13;3.07;;;16.30;99.90;;;;;;5020804;28;20892;-50
2022/04/18 09:13:27;;;;;;;5.40;3.40;;;16.60;99.90;;;;;;5017305;28;20562;-51
2022/04/18 09:15:56;;;;;;;5.10;3.03;;;17.10;99.90;;;;;;5021495;28;20979;-51
2022/04/18 09:18:24;;;;;;;5.00;3.63;;;17.00;99.90;;;;;;5021288;28;20558;-51
2022/04/18 09:20:52;;;;;;;3.87;3.47;;;17.40;99.90;;;;;;5017980;28;20468;-51
2022/04/18 09:23:26;;;;;;;3.30;3.00;;;17.20;99.90;;;;;;5015994;28;20573;-51
2022/04/18 09:26:02;;;;;;;3.30;3.00;;;17.40;99.90;;;;;;5015652;28;21037;-50
2022/04/18 09:28:31;;;;;;;3.40;2.43;;;17.00;99.90;;;;;;5024057;28;20852;-50
2022/04/18 09:31:04;;;;;;;2.33;2.17;;;17.70;99.90;;;;;;5022863;28;20494;-51
2022/04/18 09:33:33;;;;;;;18.77;3.30;;;18.10;99.90;;;;;;5016868;28;20514;-50
2022/04/18 09:36:11;;;;;;;3.73;2.97;;;18.30;99.90;;;;;;5015666;28;20548;-50
2022/04/18 09:38:39;;;;;;;4.73;2.80;;;18.20;99.90;;;;;;5019373;28;20474;-51
2022/04/18 09:41:07;;;;;;;4.93;2.77;;;18.30;99.90;;;;;;5024862;28;20542;-51
2022/04/18 09:43:42;;;;;;;2.30;2.20;;;19.30;99.90;;;;;;5027516;28;20501;-51
2022/04/18 09:46:10;;;;;;;2.53;2.43;;;19.30;99.90;;;;;;5023994;28;20550;-51
2022/04/18 09:48:37;;;;;;;2.70;2.37;;;19.00;99.90;;;;;;5026736;28;20835;-50
2022/04/18 09:51:11;;;;;;;1.93;1.70;;;18.30;99.90;;;;;;5022087;28;20463;-51
2022/04/18 09:53:38;;;;;;;2.90;2.17;;;18.50;99.90;;;;;;5022191;28;20475;-51
2022/04/18 09:56:06;;;;;;;2.60;2.40;;;18.90;99.90;;;;;;5019210;28;20467;-51
2022/04/18 09:58:33;;;;;;;3.23;2.70;;;19.40;99.90;;;;;;5019816;28;20566;-51
2022/04/18 10:01:03;;;;;;;4.40;2.53;;;18.80;99.90;;;;;;5013792;28;20575;-50
2022/04/18 10:03:33;;;;;;;2.97;2.10;;;19.60;99.90;;;;;;5016622;28;20595;-52
2022/04/18 10:06:01;;;;;;;2.07;1.97;;;19.00;99.90;;;;;;5029988;23;20613;-53
2022/04/18 10:08:28;;;;;;;3.33;2.40;;;18.50;99.90;;;;;;5019754;28;20459;-53
2022/04/18 10:10:57;;;;;;;5.10;3.00;;;18.90;99.90;;;;;;5020449;28;20463;-52
2022/04/18 10:13:24;;;;;;;10.73;3.30;;;20.00;99.90;;;;;;5020858;28;20471;-52
2022/04/18 10:15:51;;;;;;;5.40;2.93;;;19.80;99.90;;;;;;5021151;28;20644;-53
2022/04/18 10:18:18;;;;;;;2.53;2.33;;;19.60;99.90;;;;;;5012602;28;20461;-53
2022/04/18 10:20:59;;;;;;;2.10;1.93;;;18.30;99.90;;;;;;5019586;28;20554;-53
2022/04/18 10:24:02;;;;;;;2.30;2.10;;;19.00;99.90;;;;;;5017935;28;20621;-52
2022/04/18 10:27:18;;;;;;;1.47;1.37;;;19.90;99.90;;;;;;5016837;28;20574;-52
2022/04/18 10:29:50;;;;;;;1.53;1.33;;;19.00;99.90;;;;;;5019754;28;20506;-53
2022/04/18 10:32:22;;;;;;;1.83;1.73;;;17.80;99.90;;;;;;5017135;28;20463;-53
2022/04/18 10:34:49;;;;;;;3.40;1.70;;;19.10;99.90;;;;;;5017253;28;20455;-52
2022/04/18 10:37:21;;;;;;;2.00;1.90;;;19.30;99.90;;;;;;5017939;28;20585;-53
2022/04/18 10:39:56;;;;;;;2.50;2.30;;;18.40;99.90;;;;;;5018138;28;20545;-53
2022/04/18 10:42:24;;;;;;;1.73;1.63;;;18.20;99.90;;;;;;5019946;28;20557;-53
2022/04/18 10:45:08;;;;;;;2.30;2.13;;;17.50;99.90;;;;;;5020735;28;20482;-51
2022/04/18 10:48:00;;;;;;;3.10;1.60;;;17.50;99.90;;;;;;5017293;28;20490;-51
2022/04/18 10:50:28;;;;;;;4.00;2.20;;;17.90;99.90;;;;;;5012031;28;20525;-53
2022/04/18 10:53:14;;;;;;;2.27;2.07;;;17.80;99.90;;;;;;5020454;28;20948;-52
2022/04/18 10:56:02;;;;;;;1.97;1.87;;;18.10;99.90;;;;;;5018279;28;20861;-53
2022/04/18 10:58:31;;;;;;;2.50;2.30;;;18.30;99.90;;;;;;5015249;28;20915;-53
2022/04/18 11:00:59;;;;;;;2.63;2.40;;;19.00;99.90;;;;;;5023953;28;20463;-52
2022/04/18 11:03:51;;;;;;;2.03;1.93;;;17.90;99.90;;;;;;5020191;28;20573;-52
2022/04/18 11:06:46;;;;;;;2.40;2.20;;;18.10;99.90;;;;;;5015384;28;20613;-52
2022/04/18 11:09:16;;;;;;;1.70;1.60;;;18.10;99.90;;;;;;5017334;28;22007;-52
2022/04/18 11:11:47;;;;;;;1.70;1.60;;;18.10;99.90;;;;;;5020319;28;20505;-53
2022/04/18 11:14:16;;;;;;;1.97;1.80;;;18.60;99.90;;;;;;5015832;28;20460;-51
2022/04/18 11:16:55;;;;;;;2.80;2.10;;;18.80;99.90;;;;;;5027336;28;20478;-51
2022/04/18 11:19:24;;;;;;;4.90;2.40;;;19.10;99.90;;;;;;5024025;28;21023;-51
2022/04/18 11:22:07;;;;;;;3.33;2.10;;;18.60;99.90;;;;;;5028321;28;20467;-52
2022/04/18 11:24:37;;;;;;;2.63;1.63;;;18.70;99.90;;;;;;5031803;28;20945;-52
2022/04/18 11:27:07;;;;;;;2.27;2.07;;;19.40;99.90;;;;;;5021228;28;20483;-53
2022/04/18 11:29:34;;;;;;;2.00;1.90;;;19.30;99.90;;;;;;5022721;28;20546;-53
2022/04/18 11:32:01;;;;;;;1.67;1.50;;;18.80;99.90;;;;;;5032579;28;20505;-53
2022/04/18 11:34:29;;;;;;;1.67;1.57;;;18.40;99.90;;;;;;5026812;28;20977;-52
2022/04/18 11:36:57;;;;;;;1.73;1.40;;;17.70;99.90;;;;;;5021407;28;20594;-52
2022/04/18 11:39:24;;;;;;;2.03;1.67;;;18.30;99.90;;;;;;5021250;28;21035;-52
2022/04/18 11:42:05;;;;;;;2.80;1.70;;;18.00;99.90;;;;;;5021579;28;20493;-52
2022/04/18 11:44:38;;;;;;;1.67;1.57;;;18.40;99.90;;;;;;5020501;28;20854;-52
2022/04/18 11:47:08;;;;;;;3.70;1.83;;;18.30;99.90;;;;;;5021272;28;20486;-51
2022/04/18 11:49:35;;;;;;;2.30;1.50;;;18.10;99.90;;;;;;5019374;28;21011;-52
2022/04/18 11:52:01;;;;;;;2.17;1.53;;;18.00;99.90;;;;;;5019469;28;20462;-52
2022/04/18 11:54:28;;;;;;;4.10;1.73;;;17.50;99.90;;;;;;5022275;28;20531;-52
2022/04/18 11:57:00;;;;;;;2.00;1.63;;;17.20;99.90;;;;;;5028526;28;20551;-53
2022/04/18 11:59:28;;;;;;;1.77;1.67;;;17.30;99.90;;;;;;5021453;28;20472;-52
2022/04/18 12:07:25;;;;;;;1.57;1.47;;;18.30;99.90;;;;;;5020201;28;20484;-55
2022/04/18 12:09:51;;;;;;;2.23;1.20;;;18.80;99.90;;;;;;5020615;28;20948;-53
2022/04/18 12:12:30;;;;;;;1.50;1.40;;;18.20;99.90;;;;;;5015637;28;20547;-52
2022/04/18 12:15:01;;;;;;;1.00;1.00;;;19.30;99.90;;;;;;5020739;28;20490;-53
2022/04/18 12:17:27;;;;;;;1.00;1.00;;;19.30;99.90;;;;;;5021370;28;20482;-53
2022/04/18 12:19:54;;;;;;;1.50;1.40;;;19.40;99.90;;;;;;5021586;28;20491;-54
2022/04/18 12:22:21;;;;;;;1.00;1.00;;;19.50;99.90;;;;;;5023004;28;20549;-53
2022/04/18 12:24:48;;;;;;;1.77;1.40;;;19.80;99.90;;;;;;5020688;28;20509;-52
2022/04/18 12:27:16;;;;;;;0.90;0.90;;;17.80;99.90;;;;;;5016443;28;20475;-52
2022/04/18 12:29:44;;;;;;;0.93;0.93;;;18.00;99.90;;;;;;5022138;28;20469;-52
2022/04/18 12:32:28;;;;;;;0.97;0.70;;;18.40;99.90;;;;;;5023451;28;20509;-52
2022/04/18 12:34:54;;;;;;;2.43;1.27;;;19.70;99.90;;;;;;5019470;28;20459;-52
2022/04/18 12:37:26;;;;;;;2.00;1.33;;;19.50;99.90;;;;;;5021917;28;20542;-53
2022/04/18 12:40:11;;;;;;;3.70;1.40;;;19.90;99.90;;;;;;5017762;28;20468;-53
2022/04/18 12:42:38;;;;;;;3.60;0.97;;;19.70;99.90;;;;;;5024042;28;20462;-53
2022/04/18 12:45:07;;;;;;;1.30;1.20;;;19.70;99.90;;;;;;5019859;28;20562;-52
2022/04/18 12:47:33;;;;;;;1.30;1.20;;;19.00;99.90;;;;;;5021919;28;20543;-53
2022/04/18 12:50:08;;;;;;;1.30;1.20;;;19.00;99.90;;;;;;5022168;28;20490;-52
2022/04/18 12:52:44;;;;;;;0.93;0.93;;;19.20;99.90;;;;;;5018461;28;20495;-53
2022/04/18 12:55:11;;;;;;;2.00;1.10;;;19.80;99.90;;;;;;5032361;28;20493;-53
2022/04/18 12:57:38;;;;;;;6.00;1.07;;;19.00;99.90;;;;;;5033088;28;20479;-52
2022/04/18 13:00:16;;;;;;;2.00;1.33;;;19.90;99.90;;;;;;5019693;28;20460;-53
2022/04/18 13:02:57;;;;;;;1.00;1.00;;;20.40;99.90;;;;;;5020574;28;20903;-54
2022/04/18 13:05:31;;;;;;;1.70;1.17;;;20.50;99.90;;;;;;5021587;28;20589;-52
2022/04/18 13:08:01;;;;;;;0.80;0.80;;;20.10;99.90;;;;;;5019576;28;20553;-52
2022/04/18 13:10:29;;;;;;;1.30;1.20;;;20.40;99.90;;;;;;5024633;28;22162;-51
2022/04/18 13:13:01;;;;;;;0.90;0.90;;;19.60;99.90;;;;;;5023934;28;20920;-52
2022/04/18 13:15:29;;;;;;;1.00;0.80;;;20.10;99.90;;;;;;5017538;28;20491;-53
2022/04/18 13:17:57;;;;;;;2.20;1.00;;;20.50;99.90;;;;;;5022062;28;21249;-52
2022/04/18 13:20:24;;;;;;;1.33;1.23;;;21.30;99.90;;;;;;5022038;28;20459;-53
2022/04/18 13:22:51;;;;;;;0.63;0.63;;;21.20;99.90;;;;;;5019236;28;20518;-52